Time;durP1;ratioP1;P1;durP2;ratioP2;P2;SDS_P1;SDS_P2;PMS_P1;PMS_P2;Temp;Humidity;BMP_temperature;BMP_pressure;BME280_temperature;BME280_humidity;BME280_pressure;Samples;Min_cycle;Max_cycle;Signal;HPM_P1;HPM_P2
2022/11/14 00:01:18;;;;;;;2.88;2.75;;;;;;;;;;5096694;28;20044;-92
2022/11/14 00:03:44;;;;;;;2.75;2.55;;;;;;;;;;5096452;28;20051;-91
2022/11/14 00:06:11;;;;;;;3.33;3.13;;;;;;;;;;5096946;28;20052;-92
2022/11/14 00:08:38;;;;;;;2.03;1.83;;;;;;;;;;5096286;28;20059;-91
2022/11/14 00:11:06;;;;;;;3.45;2.50;;;;;;;;;;5096080;28;20048;-90
2022/11/14 00:13:32;;;;;;;2.08;1.83;;;;;;;;;;5096110;28;20074;-90
2022/11/14 00:15:59;;;;;;;4.60;4.30;;;;;;;;;;5095790;28;20109;-90
2022/11/14 00:18:25;;;;;;;5.10;3.33;;;;;;;;;;5094169;28;20044;-89
2022/11/14 00:20:53;;;;;;;4.25;3.92;;;;;;;;;;5075242;28;20048;-89
2022/11/14 00:23:20;;;;;;;3.55;1.55;;;;;;;;;;5075197;28;20098;-90
2022/11/14 00:25:46;;;;;;;2.42;2.22;;;;;;;;;;5075174;28;20044;-89
2022/11/14 00:28:15;;;;;;;3.03;1.83;;;;;;;;;;5075330;28;20044;-90
2022/11/14 00:30:41;;;;;;;2.38;2.28;;;;;;;;;;5075104;28;20083;-89
2022/11/14 00:33:08;;;;;;;1.33;1.25;;;;;;;;;;5075138;28;20041;-88
2022/11/14 00:35:34;;;;;;;5.78;2.75;;;;;;;;;;5076556;28;20048;-90
2022/11/14 00:38:01;;;;;;;1.98;1.88;;;;;;;;;;5074221;28;20548;-89
2022/11/14 00:40:27;;;;;;;1.90;1.75;;;;;;;;;;5074392;28;20048;-89
2022/11/14 00:42:54;;;;;;;8.98;1.98;;;;;;;;;;5074729;28;20090;-90
2022/11/14 00:45:22;;;;;;;1.88;1.73;;;;;;;;;;5074615;28;20052;-90
2022/11/14 00:47:48;;;;;;;1.50;1.40;;;;;;;;;;5074851;28;20051;-89
2022/11/14 00:50:15;;;;;;;1.23;1.15;;;;;;;;;;5074464;28;20053;-89
2022/11/14 00:52:42;;;;;;;2.10;2.00;;;;;;;;;;5087936;28;20097;-90
2022/11/14 00:55:09;;;;;;;1.85;1.75;;;;;;;;;;5074722;28;20494;-90
2022/11/14 00:57:35;;;;;;;1.77;1.67;;;;;;;;;;5074591;28;20045;-88
2022/11/14 01:00:02;;;;;;;1.50;1.40;;;;;;;;;;5074328;28;20044;-88
2022/11/14 01:02:30;;;;;;;2.70;2.50;;;;;;;;;;5074113;28;20486;-91
2022/11/14 01:04:56;;;;;;;2.85;2.65;;;;;;;;;;5074954;28;20121;-92
2022/11/14 01:07:23;;;;;;;3.80;3.50;;;;;;;;;;5074682;28;20414;-92
2022/11/14 01:09:49;;;;;;;1.70;1.60;;;;;;;;;;5075074;28;20045;-93
2022/11/14 01:12:16;;;;;;;3.08;2.95;;;;;;;;;;5074313;28;20490;-91
2022/11/14 01:14:42;;;;;;;1.73;1.63;;;;;;;;;;5074286;28;20109;-91
2022/11/14 01:17:09;;;;;;;1.75;1.45;;;;;;;;;;5074750;28;20106;-90
2022/11/14 01:19:37;;;;;;;1.48;1.40;;;;;;;;;;5074373;28;20044;-89
2022/11/14 01:22:04;;;;;;;2.58;2.35;;;;;;;;;;5074175;28;20406;-90
2022/11/14 01:24:31;;;;;;;3.10;2.90;;;;;;;;;;5074129;28;20071;-89
2022/11/14 01:26:58;;;;;;;2.13;1.98;;;;;;;;;;5074317;28;20493;-88
2022/11/14 01:29:24;;;;;;;2.50;2.40;;;;;;;;;;5094689;28;20516;-89
2022/11/14 01:31:51;;;;;;;6.15;2.53;;;;;;;;;;5094840;28;20044;-89
2022/11/14 01:34:17;;;;;;;4.10;3.80;;;;;;;;;;5094039;28;20083;-89
2022/11/14 01:36:45;;;;;;;2.95;2.85;;;;;;;;;;5094187;28;20051;-89
2022/11/14 01:39:12;;;;;;;1.58;1.48;;;;;;;;;;5094172;28;20040;-90
2022/11/14 01:41:38;;;;;;;3.42;2.75;;;;;;;;;;5094458;28;20047;-90
2022/11/14 01:44:11;;;;;;;2.55;2.13;;;;;;;;;;5083948;28;20106;-89
2022/11/14 01:46:40;;;;;;;2.33;2.10;;;;;;;;;;5073770;28;20456;-90
2022/11/14 01:49:11;;;;;;;2.20;2.10;;;;;;;;;;5073623;28;20049;-90
2022/11/14 01:51:40;;;;;;;1.95;1.85;;;;;;;;;;5073729;28;20074;-90
2022/11/14 01:54:09;;;;;;;1.83;1.70;;;;;;;;;;5073244;28;20882;-89
2022/11/14 01:56:38;;;;;;;2.75;2.55;;;;;;;;;;5073500;28;20059;-90
2022/11/14 01:59:06;;;;;;;2.33;2.20;;;;;;;;;;5073907;28;20048;-90
2022/11/14 02:01:34;;;;;;;2.40;1.85;;;;;;;;;;5090991;28;20052;-91
2022/11/14 02:04:01;;;;;;;3.63;3.40;;;;;;;;;;5093718;28;20043;-88
2022/11/14 02:06:29;;;;;;;2.58;2.47;;;;;;;;;;5094207;28;20068;-87
2022/11/14 02:08:57;;;;;;;4.35;3.20;;;;;;;;;;5093358;28;20528;-88
2022/11/14 02:11:28;;;;;;;2.00;1.88;;;;;;;;;;5093729;28;20043;-88
2022/11/14 02:13:55;;;;;;;4.43;3.88;;;;;;;;;;5093240;28;20105;-88
2022/11/14 02:16:22;;;;;;;3.50;2.05;;;;;;;;;;5093684;28;20044;-88
2022/11/14 02:18:48;;;;;;;5.28;4.88;;;;;;;;;;5093365;28;20117;-87
2022/11/14 02:21:16;;;;;;;4.15;2.25;;;;;;;;;;5093464;28;20055;-90
2022/11/14 02:23:43;;;;;;;4.50;2.90;;;;;;;;;;5093330;28;20078;-90
2022/11/14 02:26:09;;;;;;;1.33;1.33;;;;;;;;;;5094784;28;20051;-89
2022/11/14 02:28:36;;;;;;;3.38;1.63;;;;;;;;;;5093132;28;20109;-86
2022/11/14 02:31:02;;;;;;;3.47;2.42;;;;;;;;;;5092956;28;20040;-87
2022/11/14 02:33:29;;;;;;;4.68;4.38;;;;;;;;;;5093114;28;20044;-86
2022/11/14 02:35:55;;;;;;;1.55;1.45;;;;;;;;;;5092727;28;20055;-87
2022/11/14 02:38:23;;;;;;;2.50;2.40;;;;;;;;;;5093191;28;20048;-86
2022/11/14 02:40:50;;;;;;;3.88;2.25;;;;;;;;;;5093220;28;20044;-88
2022/11/14 02:43:16;;;;;;;3.60;3.40;;;;;;;;;;5093465;28;20413;-88
2022/11/14 02:45:43;;;;;;;9.35;3.55;;;;;;;;;;5093386;28;20489;-88
2022/11/14 02:48:10;;;;;;;2.80;2.50;;;;;;;;;;5093711;28;20405;-88
2022/11/14 02:50:36;;;;;;;1.38;1.30;;;;;;;;;;5092602;28;20060;-86
2022/11/14 02:53:03;;;;;;;3.42;2.20;;;;;;;;;;5093148;28;20481;-88
2022/11/14 02:55:31;;;;;;;2.65;1.50;;;;;;;;;;5093107;28;20101;-88
2022/11/14 02:57:57;;;;;;;1.25;0.93;;;;;;;;;;5093179;28;20051;-88
2022/11/14 03:00:24;;;;;;;2.35;2.15;;;;;;;;;;5095011;28;20048;-87
2022/11/14 03:02:52;;;;;;;2.42;2.30;;;;;;;;;;5097423;28;20044;-90
2022/11/14 03:05:19;;;;;;;3.92;1.80;;;;;;;;;;5097295;28;20048;-90
2022/11/14 03:07:45;;;;;;;1.90;1.80;;;;;;;;;;5097085;28;20048;-87
2022/11/14 03:10:12;;;;;;;3.67;1.52;;;;;;;;;;5096808;28;20040;-87
2022/11/14 03:12:40;;;;;;;2.25;2.15;;;;;;;;;;5096584;28;20050;-87
2022/11/14 03:15:07;;;;;;;2.00;1.90;;;;;;;;;;5096377;28;20101;-87
2022/11/14 03:17:34;;;;;;;1.33;1.25;;;;;;;;;;5096820;28;20052;-87
2022/11/14 03:20:01;;;;;;;1.77;1.67;;;;;;;;;;5098589;28;20489;-87
2022/11/14 03:22:27;;;;;;;2.45;2.35;;;;;;;;;;5096391;28;20489;-87
2022/11/14 03:24:54;;;;;;;2.22;2.13;;;;;;;;;;5096266;28;20063;-87
2022/11/14 03:27:21;;;;;;;1.38;1.30;;;;;;;;;;5096153;28;20062;-88
2022/11/14 03:29:49;;;;;;;3.78;3.47;;;;;;;;;;5096687;28;20047;-90
2022/11/14 03:32:15;;;;;;;2.00;1.85;;;;;;;;;;5096301;28;20040;-90
2022/11/14 03:34:42;;;;;;;2.58;2.38;;;;;;;;;;5096129;28;20108;-89
2022/11/14 03:37:08;;;;;;;1.90;1.80;;;;;;;;;;5092834;28;20047;-91
2022/11/14 03:39:35;;;;;;;3.45;3.13;;;;;;;;;;5076191;28;20485;-93
2022/11/14 03:42:02;;;;;;;2.22;2.13;;;;;;;;;;5076351;28;20055;-93
2022/11/14 03:44:28;;;;;;;2.92;2.72;;;;;;;;;;5076663;28;20413;-93
2022/11/14 03:46:56;;;;;;;3.65;3.35;;;;;;;;;;5076325;28;20501;-90
2022/11/14 03:49:22;;;;;;;2.40;2.30;;;;;;;;;;5076531;28;20056;-90
2022/11/14 03:51:49;;;;;;;2.30;2.20;;;;;;;;;;5076040;28;20109;-93
2022/11/14 03:54:16;;;;;;;1.05;1.02;;;;;;;;;;5075780;28;20083;-91
2022/11/14 03:56:42;;;;;;;1.58;1.50;;;;;;;;;;5075767;28;20391;-91
2022/11/14 03:59:09;;;;;;;4.15;3.85;;;;;;;;;;5075512;28;20049;-88
2022/11/14 04:01:35;;;;;;;1.40;1.30;;;;;;;;;;5076221;28;20162;-91
2022/11/14 04:04:03;;;;;;;1.88;1.77;;;;;;;;;;5076812;28;20463;-91
2022/11/14 04:06:30;;;;;;;3.30;3.10;;;;;;;;;;5075984;28;20383;-91
2022/11/14 04:08:56;;;;;;;4.07;3.83;;;;;;;;;;5075478;28;20521;-87
2022/11/14 04:11:23;;;;;;;2.28;2.17;;;;;;;;;;5075052;28;20097;-88
2022/11/14 04:13:49;;;;;;;3.95;3.67;;;;;;;;;;5076833;28;20048;-89
2022/11/14 04:16:16;;;;;;;4.38;4.18;;;;;;;;;;5094100;28;20105;-88
2022/11/14 04:18:42;;;;;;;3.13;2.63;;;;;;;;;;5095626;28;20475;-88
2022/11/14 04:21:10;;;;;;;3.00;2.47;;;;;;;;;;5095146;28;20040;-88
2022/11/14 04:23:37;;;;;;;2.90;2.75;;;;;;;;;;5095381;28;20048;-88
2022/11/14 04:26:03;;;;;;;2.55;2.35;;;;;;;;;;5095263;28;20039;-87
2022/11/14 04:28:30;;;;;;;3.63;1.77;;;;;;;;;;5095219;28;20051;-87
2022/11/14 04:30:56;;;;;;;1.88;1.77;;;;;;;;;;5095213;28;20056;-90
2022/11/14 04:33:23;;;;;;;3.55;3.35;;;;;;;;;;5095333;28;20049;-89
2022/11/14 04:35:49;;;;;;;5.35;4.85;;;;;;;;;;5095114;28;20437;-89
2022/11/14 04:38:17;;;;;;;3.20;3.00;;;;;;;;;;5094924;28;20052;-91
2022/11/14 04:40:48;;;;;;;1.83;1.73;;;;;;;;;;5095318;28;20440;-91
2022/11/14 04:43:14;;;;;;;1.25;1.15;;;;;;;;;;5095202;28;20048;-91
2022/11/14 04:45:41;;;;;;;2.30;2.00;;;;;;;;;;5095016;28;20048;-91
2022/11/14 04:48:07;;;;;;;1.48;1.38;;;;;;;;;;5095166;28;20052;-87
2022/11/14 04:50:34;;;;;;;3.85;3.47;;;;;;;;;;5094617;28;20052;-89
2022/11/14 04:53:00;;;;;;;3.72;3.53;;;;;;;;;;5094651;28;20044;-87
2022/11/14 04:55:28;;;;;;;3.35;3.08;;;;;;;;;;5094513;28;20113;-88
2022/11/14 04:57:55;;;;;;;1.88;1.77;;;;;;;;;;5094884;28;20048;-88
2022/11/14 05:00:22;;;;;;;2.45;2.25;;;;;;;;;;5095366;28;20511;-92
2022/11/14 05:02:49;;;;;;;1.83;1.73;;;;;;;;;;5095164;28;20409;-91
2022/11/14 05:05:16;;;;;;;2.17;2.05;;;;;;;;;;5094414;28;20073;-90
2022/11/14 05:07:42;;;;;;;3.15;2.95;;;;;;;;;;5096712;28;20482;-88
2022/11/14 05:10:09;;;;;;;1.95;1.85;;;;;;;;;;5094804;28;20048;-88
2022/11/14 05:12:37;;;;;;;5.55;2.92;;;;;;;;;;5094540;28;20044;-88
2022/11/14 05:15:04;;;;;;;7.68;4.63;;;;;;;;;;5093845;28;20052;-88
2022/11/14 05:17:31;;;;;;;3.00;2.75;;;;;;;;;;5094583;28;20052;-88
2022/11/14 05:19:57;;;;;;;2.13;2.03;;;;;;;;;;5074235;28;20052;-89
2022/11/14 05:22:24;;;;;;;5.43;3.25;;;;;;;;;;5089154;28;20052;-88
2022/11/14 05:24:50;;;;;;;1.67;1.58;;;;;;;;;;5086436;28;20843;-90
2022/11/14 05:27:17;;;;;;;2.65;2.42;;;;;;;;;;5094663;28;20075;-91
2022/11/14 05:29:45;;;;;;;3.28;3.08;;;;;;;;;;5094213;28;20508;-91
2022/11/14 05:32:11;;;;;;;3.63;2.15;;;;;;;;;;5094223;28;20048;-91
2022/11/14 05:34:38;;;;;;;2.20;2.10;;;;;;;;;;5094276;28;20054;-90
2022/11/14 05:37:04;;;;;;;2.67;2.47;;;;;;;;;;5081169;28;20071;-89
2022/11/14 05:39:31;;;;;;;1.52;1.33;;;;;;;;;;5089085;28;20109;-90
2022/11/14 05:41:58;;;;;;;2.95;2.80;;;;;;;;;;5093769;28;20062;-89
2022/11/14 05:44:24;;;;;;;3.25;3.13;;;;;;;;;;5093785;28;20048;-88
2022/11/14 05:46:52;;;;;;;2.38;2.17;;;;;;;;;;5093980;28;20405;-88
2022/11/14 05:49:19;;;;;;;1.48;1.38;;;;;;;;;;5093397;28;20469;-90
2022/11/14 05:51:45;;;;;;;9.73;2.22;;;;;;;;;;5093957;28;20048;-89
2022/11/14 05:54:12;;;;;;;1.77;1.65;;;;;;;;;;5090001;28;20039;-90
2022/11/14 05:56:38;;;;;;;1.80;1.67;;;;;;;;;;5093929;28;20082;-90
2022/11/14 05:59:05;;;;;;;1.58;1.48;;;;;;;;;;5094686;28;20040;-89
2022/11/14 06:01:31;;;;;;;4.05;2.65;;;;;;;;;;5097788;28;20499;-90
2022/11/14 06:03:59;;;;;;;2.45;2.25;;;;;;;;;;5095659;28;20052;-89
2022/11/14 06:06:26;;;;;;;1.73;1.63;;;;;;;;;;5095227;28;20048;-88
2022/11/14 06:08:53;;;;;;;2.63;2.45;;;;;;;;;;5082985;28;20052;-90
2022/11/14 06:11:20;;;;;;;4.28;3.88;;;;;;;;;;5094500;28;20044;-90
2022/11/14 06:13:47;;;;;;;3.40;3.13;;;;;;;;;;5096717;28;20040;-90
2022/11/14 06:16:14;;;;;;;4.60;4.30;;;;;;;;;;5093011;28;20105;-90
2022/11/14 06:18:41;;;;;;;3.40;2.28;;;;;;;;;;5094693;28;20699;-90
2022/11/14 06:21:11;;;;;;;3.63;3.42;;;;;;;;;;5094772;28;20048;-89
2022/11/14 06:23:38;;;;;;;2.15;1.75;;;;;;;;;;5093890;28;20048;-90
2022/11/14 06:26:05;;;;;;;9.18;3.65;;;;;;;;;;5082419;28;20056;-90
2022/11/14 06:28:39;;;;;;;3.10;2.60;;;;;;;;;;5078741;28;20048;-89
2022/11/14 06:31:06;;;;;;;2.90;2.35;;;;;;;;;;5094154;28;20105;-89
2022/11/14 06:33:34;;;;;;;3.30;3.10;;;;;;;;;;5094943;28;20051;-89
2022/11/14 06:36:01;;;;;;;2.83;2.63;;;;;;;;;;5096922;28;20048;-89
2022/11/14 06:38:30;;;;;;;3.97;3.67;;;;;;;;;;5099516;28;20536;-90
2022/11/14 06:41:01;;;;;;;7.13;4.55;;;;;;;;;;5098473;28;20101;-89
2022/11/14 06:43:28;;;;;;;7.50;5.88;;;;;;;;;;5097689;28;20401;-91
2022/11/14 06:45:54;;;;;;;3.88;3.58;;;;;;;;;;5099001;28;20048;-93
2022/11/14 06:48:21;;;;;;;5.47;5.13;;;;;;;;;;5097926;28;20135;-91
2022/11/14 06:50:51;;;;;;;5.03;4.72;;;;;;;;;;5099284;28;20048;-90
2022/11/14 06:53:17;;;;;;;5.15;2.22;;;;;;;;;;5107647;28;20044;-92
2022/11/14 06:55:52;;;;;;;3.17;2.88;;;;;;;;;;5106913;28;20047;-91
2022/11/14 06:58:18;;;;;;;3.67;3.47;;;;;;;;;;5107667;28;20059;-91
2022/11/14 07:00:45;;;;;;;3.40;3.17;;;;;;;;;;5101588;28;20051;-89
2022/11/14 07:03:11;;;;;;;3.83;3.50;;;;;;;;;;5098746;28;20102;-90
2022/11/14 07:05:38;;;;;;;4.22;3.88;;;;;;;;;;5097577;28;20040;-89
2022/11/14 07:08:04;;;;;;;4.10;3.80;;;;;;;;;;5099043;28;20048;-90
2022/11/14 07:10:31;;;;;;;7.15;5.47;;;;;;;;;;5097462;28;20493;-91
2022/11/14 07:12:59;;;;;;;4.82;4.53;;;;;;;;;;5098288;28;20056;-90
2022/11/14 07:15:25;;;;;;;4.05;3.70;;;;;;;;;;5087751;28;20036;-90
2022/11/14 07:17:52;;;;;;;2.45;2.33;;;;;;;;;;5077805;28;20048;-91
2022/11/14 07:20:18;;;;;;;4.70;4.13;;;;;;;;;;5077634;28;20489;-89
2022/11/14 07:22:45;;;;;;;4.22;3.88;;;;;;;;;;5077631;28;20044;-88
2022/11/14 07:25:12;;;;;;;2.83;2.63;;;;;;;;;;5084318;28;20052;-85
2022/11/14 07:27:38;;;;;;;4.30;3.33;;;;;;;;;;5095454;28;20110;-86
2022/11/14 07:30:07;;;;;;;6.88;5.38;;;;;;;;;;5093998;28;20055;-85
2022/11/14 07:32:33;;;;;;;2.83;2.67;;;;;;;;;;5083629;28;20056;-84
2022/11/14 07:35:00;;;;;;;4.57;4.18;;;;;;;;;;5091319;28;20049;-86
2022/11/14 07:37:26;;;;;;;4.93;4.05;;;;;;;;;;5081621;28;20113;-84
2022/11/14 07:39:53;;;;;;;5.22;4.90;;;;;;;;;;5084032;28;20085;-85
2022/11/14 07:42:20;;;;;;;5.93;5.53;;;;;;;;;;5093791;28;20133;-85
2022/11/14 07:44:46;;;;;;;5.47;4.97;;;;;;;;;;5093854;28;20047;-84
2022/11/14 07:47:14;;;;;;;3.42;3.22;;;;;;;;;;5092951;28;20056;-84
2022/11/14 07:49:40;;;;;;;6.78;6.18;;;;;;;;;;5089472;28;20059;-86
2022/11/14 07:52:07;;;;;;;4.97;4.55;;;;;;;;;;5098423;28;20056;-85
2022/11/14 07:54:33;;;;;;;3.13;2.92;;;;;;;;;;5092156;28;20045;-85
2022/11/14 07:57:00;;;;;;;7.30;4.38;;;;;;;;;;5074043;28;20103;-85
2022/11/14 07:59:26;;;;;;;6.40;5.93;;;;;;;;;;5089454;28;20052;-84
2022/11/14 08:01:53;;;;;;;5.32;4.93;;;;;;;;;;5086546;28;20103;-84
2022/11/14 08:04:21;;;;;;;8.18;7.28;;;;;;;;;;5094073;28;20097;-85
2022/11/14 08:06:47;;;;;;;10.45;5.57;;;;;;;;;;5082284;28;20390;-85
2022/11/14 08:09:14;;;;;;;4.85;4.53;;;;;;;;;;5092739;28;20044;-85
2022/11/14 08:11:49;;;;;;;3.75;3.33;;;;;;;;;;5092951;28;20676;-85
2022/11/14 08:14:16;;;;;;;6.80;6.10;;;;;;;;;;5093947;28;20044;-86
2022/11/14 08:16:42;;;;;;;3.20;2.90;;;;;;;;;;5094010;28;20047;-86
2022/11/14 08:19:09;;;;;;;5.97;5.22;;;;;;;;;;5093271;28;20044;-85
2022/11/14 08:21:37;;;;;;;3.97;3.65;;;;;;;;;;5093384;28;20048;-86
2022/11/14 08:24:04;;;;;;;7.47;3.88;;;;;;;;;;5087984;28;20044;-86
2022/11/14 08:26:30;;;;;;;9.18;4.80;;;;;;;;;;5082143;28;20054;-84
2022/11/14 08:28:57;;;;;;;4.95;4.57;;;;;;;;;;5082462;28;20058;-85
2022/11/14 08:31:23;;;;;;;7.90;5.13;;;;;;;;;;5088806;28;20094;-84
2022/11/14 08:33:51;;;;;;;7.80;5.10;;;;;;;;;;5091695;28;20651;-83
2022/11/14 08:36:17;;;;;;;6.10;4.35;;;;;;;;;;5081261;28;20605;-83
2022/11/14 08:38:45;;;;;;;4.78;4.35;;;;;;;;;;5092878;28;20094;-85
2022/11/14 08:41:12;;;;;;;3.72;3.42;;;;;;;;;;5092935;28;20052;-84
2022/11/14 08:43:38;;;;;;;8.82;6.00;;;;;;;;;;5092397;28;20039;-84
2022/11/14 08:46:05;;;;;;;6.13;4.78;;;;;;;;;;5095100;28;20060;-85
2022/11/14 08:48:32;;;;;;;6.55;5.88;;;;;;;;;;5092341;28;20043;-83
2022/11/14 08:51:02;;;;;;;5.32;4.93;;;;;;;;;;5093668;28;20052;-83
2022/11/14 08:53:29;;;;;;;4.03;3.53;;;;;;;;;;5093993;28;20131;-84
2022/11/14 08:55:57;;;;;;;4.60;4.22;;;;;;;;;;5092532;28;20083;-85
2022/11/14 08:58:24;;;;;;;5.15;4.53;;;;;;;;;;5089860;28;20051;-84
2022/11/14 09:00:51;;;;;;;6.72;5.82;;;;;;;;;;5090207;28;20582;-84
2022/11/14 09:03:17;;;;;;;7.22;5.03;;;;;;;;;;5072729;28;20059;-84
2022/11/14 09:05:44;;;;;;;4.80;4.40;;;;;;;;;;5085286;28;20055;-86
2022/11/14 09:08:11;;;;;;;5.82;5.35;;;;;;;;;;5089443;28;20139;-85
2022/11/14 09:10:37;;;;;;;5.43;4.93;;;;;;;;;;5091102;28;20672;-84
2022/11/14 09:13:05;;;;;;;5.82;5.45;;;;;;;;;;5091031;28;20496;-85
2022/11/14 09:15:32;;;;;;;5.63;5.18;;;;;;;;;;5082846;28;20132;-84
2022/11/14 09:17:59;;;;;;;10.02;9.05;;;;;;;;;;5091817;28;20408;-86
2022/11/14 09:20:26;;;;;;;5.65;4.90;;;;;;;;;;5091504;28;20509;-86
2022/11/14 09:22:52;;;;;;;6.10;5.50;;;;;;;;;;5092376;28;20478;-85
2022/11/14 09:25:19;;;;;;;5.72;4.63;;;;;;;;;;5090902;28;20044;-85
2022/11/14 09:27:46;;;;;;;5.57;5.07;;;;;;;;;;5092561;28;20052;-84
2022/11/14 09:30:14;;;;;;;4.85;4.45;;;;;;;;;;5090459;28;20071;-85
2022/11/14 09:32:41;;;;;;;7.43;6.30;;;;;;;;;;5073349;28;20063;-85
2022/11/14 09:35:08;;;;;;;5.57;4.20;;;;;;;;;;5073646;28;20047;-86
2022/11/14 09:37:34;;;;;;;7.75;6.45;;;;;;;;;;5070925;28;20497;-85
2022/11/14 09:40:02;;;;;;;6.38;5.88;;;;;;;;;;5073809;28;20053;-86
2022/11/14 09:42:36;;;;;;;7.60;6.80;;;;;;;;;;5072737;28;20787;-83
2022/11/14 09:45:06;;;;;;;4.90;4.50;;;;;;;;;;5080645;28;20040;-84
2022/11/14 09:47:36;;;;;;;6.60;5.90;;;;;;;;;;5088566;28;20052;-83
2022/11/14 09:50:06;;;;;;;5.30;4.80;;;;;;;;;;5083968;28;20051;-84
2022/11/14 09:52:35;;;;;;;6.65;6.05;;;;;;;;;;5091741;28;20056;-85
2022/11/14 09:55:04;;;;;;;8.30;6.13;;;;;;;;;;5091438;28;20043;-86
2022/11/14 09:57:32;;;;;;;10.35;5.13;;;;;;;;;;5090725;28;20520;-86
2022/11/14 09:59:58;;;;;;;5.85;5.35;;;;;;;;;;5091418;28;20067;-87
2022/11/14 10:02:40;;;;;;;7.93;4.68;;;;;;;;;;5092151;28;20055;-86
2022/11/14 10:05:18;;;;;;;4.68;3.42;;;;;;;;;;5087404;28;20154;-88
2022/11/14 10:07:50;;;;;;;7.63;6.22;;;;;;;;;;5073544;28;20048;-91
2022/11/14 10:10:24;;;;;;;6.88;5.28;;;;;;;;;;5077848;28;20531;-87
2022/11/14 10:12:56;;;;;;;9.50;6.95;;;;;;;;;;5089413;28;20085;-87
2022/11/14 10:15:25;;;;;;;6.80;6.22;;;;;;;;;;5090949;28;20043;-88
2022/11/14 10:18:04;;;;;;;9.00;5.78;;;;;;;;;;5091431;28;20497;-85
2022/11/14 10:20:33;;;;;;;9.15;7.68;;;;;;;;;;5084855;28;20893;-85
2022/11/14 10:23:12;;;;;;;7.78;6.20;;;;;;;;;;5092157;28;20079;-86
2022/11/14 10:25:45;;;;;;;5.93;5.55;;;;;;;;;;5091889;28;20051;-86
2022/11/14 10:28:20;;;;;;;9.30;5.72;;;;;;;;;;5091934;28;20044;-86
2022/11/14 10:30:52;;;;;;;9.50;6.65;;;;;;;;;;5091821;28;20047;-85
2022/11/14 10:33:24;;;;;;;8.90;7.45;;;;;;;;;;5093716;28;20056;-86
2022/11/14 10:35:54;;;;;;;5.65;5.15;;;;;;;;;;5093646;28;20259;-86
2022/11/14 10:38:24;;;;;;;11.48;8.75;;;;;;;;;;5091742;28;20540;-86
2022/11/14 10:40:51;;;;;;;8.40;5.38;;;;;;;;;;5083151;28;20787;-86
2022/11/14 10:43:22;;;;;;;13.27;8.50;;;;;;;;;;5091434;28;20060;-86
2022/11/14 10:45:50;;;;;;;7.97;6.18;;;;;;;;;;5091213;28;20048;-86
2022/11/14 10:48:19;;;;;;;8.07;7.38;;;;;;;;;;5091714;28;20463;-86
2022/11/14 10:50:48;;;;;;;6.28;5.32;;;;;;;;;;5091801;28;20056;-86
2022/11/14 10:53:19;;;;;;;9.40;6.00;;;;;;;;;;5091875;28;20048;-87
2022/11/14 10:55:49;;;;;;;6.32;5.72;;;;;;;;;;5092002;28;20105;-87
2022/11/14 10:58:16;;;;;;;11.75;10.73;;;;;;;;;;5091655;28;20439;-86
2022/11/14 11:00:42;;;;;;;7.60;4.75;;;;;;;;;;5091757;28;20044;-87
2022/11/14 11:03:09;;;;;;;6.90;5.57;;;;;;;;;;5091201;28;20052;-86
2022/11/14 11:05:46;;;;;;;5.38;4.88;;;;;;;;;;5091248;28;20105;-85
2022/11/14 11:13:52;;;;;;;5.95;5.40;;;;;;;;;;5091108;28;20098;-87
2022/11/14 11:16:23;;;;;;;5.70;5.32;;;;;;;;;;5090525;28;20048;-86
2022/11/14 11:18:50;;;;;;;12.30;11.32;;;;;;;;;;5091750;28;20048;-86
2022/11/14 11:21:17;;;;;;;8.80;7.22;;;;;;;;;;5093169;28;20048;-87
2022/11/14 11:23:51;;;;;;;11.07;7.00;;;;;;;;;;5095394;28;20059;-86
2022/11/14 11:26:24;;;;;;;8.43;7.47;;;;;;;;;;5095501;28;20359;-86
2022/11/14 11:29:05;;;;;;;7.93;6.22;;;;;;;;;;5099869;28;20052;-86
2022/11/14 11:31:49;;;;;;;11.63;7.13;;;;;;;;;;5093186;28;20063;-86
2022/11/14 11:34:16;;;;;;;8.45;7.68;;;;;;;;;;5094764;28;20453;-86
2022/11/14 11:36:47;;;;;;;6.40;5.90;;;;;;;;;;5095109;28;20051;-86
2022/11/14 11:39:18;;;;;;;8.70;6.40;;;;;;;;;;5094910;28;20052;-86
2022/11/14 11:41:46;;;;;;;7.78;6.88;;;;;;;;;;5095130;28;20490;-87
2022/11/14 11:44:16;;;;;;;10.73;9.82;;;;;;;;;;5094767;28;20044;-86
2022/11/14 11:46:45;;;;;;;6.13;5.65;;;;;;;;;;5085199;28;20048;-87
2022/11/14 11:49:15;;;;;;;6.63;5.97;;;;;;;;;;5076724;28;20047;-86
2022/11/14 11:51:42;;;;;;;;;;;;;;;;;;5095538;28;20059;-86
2022/11/14 11:54:14;;;;;;;9.93;9.18;;;;;;;;;;5094975;28;19924;-86
2022/11/14 11:56:42;;;;;;;10.93;10.15;;;;;;;;;;5094713;28;20048;-86
2022/11/14 11:59:18;;;;;;;13.93;12.85;;;;;;;;;;5094849;28;20044;-86
2022/11/14 12:01:44;;;;;;;13.85;13.05;;;;;;;;;;5094588;28;20060;-86
2022/11/14 12:04:11;;;;;;;13.93;13.00;;;;;;;;;;5084940;28;20090;-86
2022/11/14 12:06:41;;;;;;;5.85;5.45;;;;;;;;;;5086150;28;20105;-86
2022/11/14 12:09:13;;;;;;;11.85;11.15;;;;;;;;;;5076458;28;20045;-87
2022/11/14 12:11:43;;;;;;;9.10;8.38;;;;;;;;;;5085585;28;20385;-86
2022/11/14 12:14:36;;;;;;;12.38;11.55;;;;;;;;;;5093623;28;20048;-87
2022/11/14 12:17:21;;;;;;;6.68;6.07;;;;;;;;;;5088347;28;20054;-87
2022/11/14 12:20:08;;;;;;;12.48;6.63;;;;;;;;;;5094331;28;20105;-87
2022/11/14 12:22:49;;;;;;;11.75;10.70;;;;;;;;;;5089588;28;20044;-87
2022/11/14 12:25:31;;;;;;;12.13;11.40;;;;;;;;;;5073271;28;20080;-87
2022/11/14 12:28:05;;;;;;;10.88;10.07;;;;;;;;;;5083522;28;20151;-87
2022/11/14 12:30:34;;;;;;;10.30;9.50;;;;;;;;;;5093799;28;20083;-86
2022/11/14 12:33:04;;;;;;;14.85;11.82;;;;;;;;;;5093029;28;20056;-86
2022/11/14 12:35:32;;;;;;;11.07;7.47;;;;;;;;;;5082914;28;20045;-86
2022/11/14 12:37:59;;;;;;;13.35;12.18;;;;;;;;;;5075741;28;20089;-86
2022/11/14 12:40:28;;;;;;;6.65;6.22;;;;;;;;;;5076554;28;20074;-86
2022/11/14 12:42:55;;;;;;;5.43;5.10;;;;;;;;;;5085176;28;20143;-88
2022/11/14 12:45:40;;;;;;;4.82;4.47;;;;;;;;;;5094418;28;20044;-87
2022/11/14 12:48:21;;;;;;;13.48;12.50;;;;;;;;;;5073786;28;20106;-87
2022/11/14 12:50:48;;;;;;;9.43;8.25;;;;;;;;;;5075371;28;20469;-86
2022/11/14 12:53:35;;;;;;;16.25;15.25;;;;;;;;;;5093831;28;20056;-87
2022/11/14 12:56:13;;;;;;;14.82;13.50;;;;;;;;;;5088819;28;20047;-87
2022/11/14 12:59:04;;;;;;;9.50;8.70;;;;;;;;;;5091748;28;20060;-87
2022/11/14 13:01:46;;;;;;;12.07;11.20;;;;;;;;;;5081811;28;20048;-87
2022/11/14 13:04:22;;;;;;;12.13;11.15;;;;;;;;;;5094084;28;20052;-87
2022/11/14 13:06:54;;;;;;;12.57;11.75;;;;;;;;;;5093499;28;20052;-87
2022/11/14 13:09:34;;;;;;;17.83;9.57;;;;;;;;;;5090188;28;20048;-87
2022/11/14 13:23:48;;;;;;;7.10;6.18;;;;;;;;;;5072948;28;20175;-86
2022/11/14 13:26:33;;;;;;;9.73;9.13;;;;;;;;;;5034734;28;20045;-86
2022/11/14 13:28:59;;;;;;;5.68;5.18;;;;;;;;;;5050784;28;20049;-86
2022/11/14 13:31:42;;;;;;;9.70;6.22;;;;;;;;;;5050797;28;20045;-86
2022/11/14 13:34:35;;;;;;;13.15;12.18;;;;;;;;;;5050710;28;20057;-87
2022/11/14 13:37:08;;;;;;;5.95;5.50;;;;;;;;;;4991244;28;20058;-86
2022/11/14 13:39:40;;;;;;;9.07;8.30;;;;;;;;;;4965331;28;20108;-86
2022/11/14 13:42:18;;;;;;;11.68;10.93;;;;;;;;;;4971996;28;20520;-86
2022/11/14 13:45:00;;;;;;;5.05;4.70;;;;;;;;;;4970312;28;20055;-85
2022/11/14 13:47:36;;;;;;;13.27;12.13;;;;;;;;;;4983410;28;20051;-86
2022/11/14 13:50:06;;;;;;;11.30;10.50;;;;;;;;;;4990578;28;20050;-86
2022/11/14 13:52:35;;;;;;;13.63;12.82;;;;;;;;;;4992180;28;20054;-87
2022/11/14 13:55:02;;;;;;;5.30;4.85;;;;;;;;;;4989050;28;20576;-86
2022/11/14 13:57:34;;;;;;;7.10;5.72;;;;;;;;;;4971581;28;20051;-87
2022/11/14 14:00:02;;;;;;;9.13;5.28;;;;;;;;;;4991034;28;20060;-86
2022/11/14 14:02:35;;;;;;;6.20;5.50;;;;;;;;;;5029976;28;20132;-86
2022/11/14 14:05:09;;;;;;;8.50;7.75;;;;;;;;;;5029985;28;20469;-85
2022/11/14 14:07:43;;;;;;;5.05;4.70;;;;;;;;;;5029819;28;20071;-85
2022/11/14 14:10:16;;;;;;;6.07;5.47;;;;;;;;;;5030284;28;20049;-86
2022/11/14 14:12:49;;;;;;;11.85;11.15;;;;;;;;;;5045047;28;20051;-85
2022/11/14 14:15:20;;;;;;;6.20;5.60;;;;;;;;;;5075549;28;21241;-86
2022/11/14 14:17:52;;;;;;;8.38;7.80;;;;;;;;;;5091749;28;20047;-86
2022/11/14 14:20:29;;;;;;;5.97;5.50;;;;;;;;;;5089628;28;20066;-86
2022/11/14 14:23:00;;;;;;;6.20;5.78;;;;;;;;;;5082879;28;20109;-86
2022/11/14 14:25:30;;;;;;;8.05;6.57;;;;;;;;;;5081037;28;20040;-85
2022/11/14 14:28:03;;;;;;;13.73;11.77;;;;;;;;;;5084882;28;20048;-86
2022/11/14 14:30:29;;;;;;;11.75;10.55;;;;;;;;;;5080624;28;20044;-86
2022/11/14 14:33:02;;;;;;;13.43;12.23;;;;;;;;;;5091500;28;20056;-85
2022/11/14 14:35:30;;;;;;;5.05;4.63;;;;;;;;;;5077428;28;20048;-85
2022/11/14 14:37:58;;;;;;;14.07;13.30;;;;;;;;;;5084976;28;20063;-86
2022/11/14 14:40:26;;;;;;;6.68;6.07;;;;;;;;;;5091550;28;20044;-86
2022/11/14 14:42:53;;;;;;;5.80;5.30;;;;;;;;;;5086193;28;20155;-87
2022/11/14 14:45:21;;;;;;;6.70;4.20;;;;;;;;;;5078737;28;20048;-86
2022/11/14 14:47:49;;;;;;;5.47;4.97;;;;;;;;;;5079882;28;20052;-86
2022/11/14 14:50:16;;;;;;;5.43;5.03;;;;;;;;;;5071540;28;20052;-84
2022/11/14 14:52:43;;;;;;;7.03;4.60;;;;;;;;;;5082540;28;20051;-85
2022/11/14 14:55:19;;;;;;;6.70;6.10;;;;;;;;;;5091002;28;20044;-85
2022/11/14 14:57:45;;;;;;;5.30;3.92;;;;;;;;;;5094408;28;20052;-85
2022/11/14 15:00:17;;;;;;;4.93;4.57;;;;;;;;;;5075713;28;20076;-84
2022/11/14 15:02:44;;;;;;;5.60;5.10;;;;;;;;;;5086110;28;20546;-84
2022/11/14 15:05:11;;;;;;;3.95;3.65;;;;;;;;;;5095300;28;20143;-84
2022/11/14 15:07:39;;;;;;;4.10;3.80;;;;;;;;;;5097503;28;20493;-85